sensor_id;sensor_type;location;lat;lon;timestamp;P1;durP1;ratioP1;P2;durP2;ratioP2
14092;SDS011;7123;49.468;10.992;2023-07-09T00:01:16;11.20;;;8.10;;
14092;SDS011;7123;49.468;10.992;2023-07-09T00:03:45;13.13;;;8.07;;
14092;SDS011;7123;49.468;10.992;2023-07-09T00:06:18;9.98;;;8.00;;
14092;SDS011;7123;49.468;10.992;2023-07-09T00:08:47;9.02;;;8.10;;
14092;SDS011;7123;49.468;10.992;2023-07-09T00:11:15;12.05;;;8.23;;
14092;SDS011;7123;49.468;10.992;2023-07-09T00:13:43;9.85;;;7.85;;
14092;SDS011;7123;49.468;10.992;2023-07-09T00:16:17;8.35;;;7.55;;
14092;SDS011;7123;49.468;10.992;2023-07-09T00:18:50;11.98;;;7.35;;
14092;SDS011;7123;49.468;10.992;2023-07-09T00:21:18;8.57;;;7.70;;
14092;SDS011;7123;49.468;10.992;2023-07-09T00:23:46;8.35;;;7.50;;
14092;SDS011;7123;49.468;10.992;2023-07-09T00:26:16;9.02;;;8.23;;
14092;SDS011;7123;49.468;10.992;2023-07-09T00:28:46;8.70;;;7.80;;
14092;SDS011;7123;49.468;10.992;2023-07-09T00:31:14;7.90;;;7.28;;
14092;SDS011;7123;49.468;10.992;2023-07-09T00:33:43;16.73;;;7.68;;
14092;SDS011;7123;49.468;10.992;2023-07-09T00:36:26;8.77;;;7.78;;
14092;SDS011;7123;49.468;10.992;2023-07-09T00:38:55;9.25;;;8.13;;
14092;SDS011;7123;49.468;10.992;2023-07-09T00:41:25;10.73;;;8.05;;
14092;SDS011;7123;49.468;10.992;2023-07-09T00:43:54;10.90;;;7.75;;
14092;SDS011;7123;49.468;10.992;2023-07-09T00:48:58;8.68;;;7.78;;
14092;SDS011;7123;49.468;10.992;2023-07-09T00:51:33;9.05;;;8.02;;
14092;SDS011;7123;49.468;10.992;2023-07-09T00:54:11;7.88;;;7.18;;
14092;SDS011;7123;49.468;10.992;2023-07-09T00:56:42;7.70;;;7.00;;
14092;SDS011;7123;49.468;10.992;2023-07-09T00:59:12;8.80;;;7.90;;
14092;SDS011;7123;49.468;10.992;2023-07-09T01:01:43;9.25;;;8.15;;
14092;SDS011;7123;49.468;10.992;2023-07-09T01:04:13;9.38;;;7.50;;
14092;SDS011;7123;49.468;10.992;2023-07-09T01:06:45;10.38;;;7.82;;
14092;SDS011;7123;49.468;10.992;2023-07-09T01:09:16;8.40;;;7.50;;
14092;SDS011;7123;49.468;10.992;2023-07-09T01:11:44;8.50;;;7.70;;
14092;SDS011;7123;49.468;10.992;2023-07-09T01:14:11;9.43;;;7.53;;
14092;SDS011;7123;49.468;10.992;2023-07-09T01:16:44;8.38;;;7.65;;
14092;SDS011;7123;49.468;10.992;2023-07-09T01:19:23;8.98;;;8.18;;
14092;SDS011;7123;49.468;10.992;2023-07-09T01:21:59;11.88;;;7.57;;
14092;SDS011;7123;49.468;10.992;2023-07-09T01:27:25;7.93;;;7.20;;
14092;SDS011;7123;49.468;10.992;2023-07-09T01:29:54;10.15;;;7.93;;
14092;SDS011;7123;49.468;10.992;2023-07-09T01:32:22;9.15;;;7.57;;
14092;SDS011;7123;49.468;10.992;2023-07-09T01:34:50;9.30;;;8.10;;
14092;SDS011;7123;49.468;10.992;2023-07-09T01:37:21;8.80;;;8.00;;
14092;SDS011;7123;49.468;10.992;2023-07-09T01:39:52;10.13;;;7.28;;
14092;SDS011;7123;49.468;10.992;2023-07-09T01:42:20;8.20;;;7.43;;
14092;SDS011;7123;49.468;10.992;2023-07-09T01:44:49;9.15;;;7.53;;
14092;SDS011;7123;49.468;10.992;2023-07-09T01:47:16;8.48;;;7.68;;
14092;SDS011;7123;49.468;10.992;2023-07-09T01:49:44;10.02;;;7.57;;
14092;SDS011;7123;49.468;10.992;2023-07-09T01:52:14;8.43;;;7.65;;
14092;SDS011;7123;49.468;10.992;2023-07-09T01:54:42;8.60;;;7.80;;
14092;SDS011;7123;49.468;10.992;2023-07-09T01:57:16;12.23;;;8.07;;
14092;SDS011;7123;49.468;10.992;2023-07-09T01:59:51;8.75;;;7.35;;
14092;SDS011;7123;49.468;10.992;2023-07-09T02:02:21;12.70;;;8.02;;
14092;SDS011;7123;49.468;10.992;2023-07-09T02:04:50;11.55;;;7.85;;
14092;SDS011;7123;49.468;10.992;2023-07-09T02:07:18;8.60;;;7.80;;
14092;SDS011;7123;49.468;10.992;2023-07-09T02:09:46;8.80;;;7.90;;
14092;SDS011;7123;49.468;10.992;2023-07-09T02:12:13;9.25;;;7.60;;
14092;SDS011;7123;49.468;10.992;2023-07-09T02:14:41;10.27;;;7.57;;
14092;SDS011;7123;49.468;10.992;2023-07-09T02:17:10;8.00;;;7.30;;
14092;SDS011;7123;49.468;10.992;2023-07-09T02:19:37;10.23;;;7.15;;
14092;SDS011;7123;49.468;10.992;2023-07-09T02:22:06;7.90;;;7.10;;
14092;SDS011;7123;49.468;10.992;2023-07-09T02:24:33;8.48;;;7.65;;
14092;SDS011;7123;49.468;10.992;2023-07-09T02:27:03;10.98;;;7.85;;
14092;SDS011;7123;49.468;10.992;2023-07-09T02:29:31;8.10;;;7.30;;
14092;SDS011;7123;49.468;10.992;2023-07-09T02:31:59;9.27;;;7.57;;
14092;SDS011;7123;49.468;10.992;2023-07-09T02:34:27;8.05;;;7.25;;
14092;SDS011;7123;49.468;10.992;2023-07-09T02:36:56;8.27;;;7.47;;
14092;SDS011;7123;49.468;10.992;2023-07-09T02:39:24;8.57;;;7.78;;
14092;SDS011;7123;49.468;10.992;2023-07-09T02:41:51;8.32;;;7.53;;
14092;SDS011;7123;49.468;10.992;2023-07-09T02:44:18;10.07;;;7.30;;
14092;SDS011;7123;49.468;10.992;2023-07-09T02:46:45;7.88;;;7.07;;
14092;SDS011;7123;49.468;10.992;2023-07-09T02:49:13;7.93;;;7.22;;
14092;SDS011;7123;49.468;10.992;2023-07-09T02:51:40;10.85;;;7.40;;
14092;SDS011;7123;49.468;10.992;2023-07-09T02:54:07;8.77;;;7.80;;
14092;SDS011;7123;49.468;10.992;2023-07-09T02:56:34;7.60;;;6.90;;
14092;SDS011;7123;49.468;10.992;2023-07-09T02:59:01;9.70;;;7.72;;
14092;SDS011;7123;49.468;10.992;2023-07-09T03:01:28;8.90;;;7.43;;
14092;SDS011;7123;49.468;10.992;2023-07-09T03:03:55;10.23;;;7.35;;
14092;SDS011;7123;49.468;10.992;2023-07-09T03:06:22;10.13;;;7.40;;
14092;SDS011;7123;49.468;10.992;2023-07-09T03:08:50;10.50;;;7.35;;
14092;SDS011;7123;49.468;10.992;2023-07-09T03:11:18;8.15;;;7.35;;
14092;SDS011;7123;49.468;10.992;2023-07-09T03:13:45;14.70;;;7.85;;
14092;SDS011;7123;49.468;10.992;2023-07-09T03:16:14;8.80;;;7.90;;
14092;SDS011;7123;49.468;10.992;2023-07-09T03:18:41;10.52;;;7.72;;
14092;SDS011;7123;49.468;10.992;2023-07-09T03:21:08;8.65;;;7.75;;
14092;SDS011;7123;49.468;10.992;2023-07-09T03:23:35;8.23;;;7.28;;
14092;SDS011;7123;49.468;10.992;2023-07-09T03:26:02;8.35;;;7.40;;
14092;SDS011;7123;49.468;10.992;2023-07-09T03:28:30;10.20;;;7.82;;
14092;SDS011;7123;49.468;10.992;2023-07-09T03:30:58;7.75;;;7.03;;
14092;SDS011;7123;49.468;10.992;2023-07-09T03:33:25;8.85;;;7.80;;
14092;SDS011;7123;49.468;10.992;2023-07-09T03:35:52;10.82;;;7.07;;
14092;SDS011;7123;49.468;10.992;2023-07-09T03:38:18;8.02;;;7.22;;
14092;SDS011;7123;49.468;10.992;2023-07-09T03:40:49;8.10;;;7.40;;
14092;SDS011;7123;49.468;10.992;2023-07-09T03:43:16;10.45;;;7.68;;
14092;SDS011;7123;49.468;10.992;2023-07-09T03:45:43;9.50;;;7.32;;
14092;SDS011;7123;49.468;10.992;2023-07-09T03:48:11;11.35;;;7.70;;
14092;SDS011;7123;49.468;10.992;2023-07-09T03:50:39;8.80;;;7.55;;
14092;SDS011;7123;49.468;10.992;2023-07-09T03:53:07;9.05;;;7.80;;
14092;SDS011;7123;49.468;10.992;2023-07-09T03:55:34;9.15;;;7.60;;
14092;SDS011;7123;49.468;10.992;2023-07-09T03:58:01;7.50;;;6.90;;
14092;SDS011;7123;49.468;10.992;2023-07-09T04:00:31;8.55;;;7.75;;
14092;SDS011;7123;49.468;10.992;2023-07-09T04:02:58;8.07;;;7.38;;
14092;SDS011;7123;49.468;10.992;2023-07-09T04:05:25;8.07;;;7.32;;
14092;SDS011;7123;49.468;10.992;2023-07-09T04:07:53;9.48;;;8.55;;
14092;SDS011;7123;49.468;10.992;2023-07-09T04:10:21;9.43;;;7.82;;
14092;SDS011;7123;49.468;10.992;2023-07-09T04:12:48;9.93;;;7.65;;
14092;SDS011;7123;49.468;10.992;2023-07-09T04:15:15;8.38;;;7.57;;
14092;SDS011;7123;49.468;10.992;2023-07-09T04:17:42;8.43;;;7.53;;
14092;SDS011;7123;49.468;10.992;2023-07-09T04:20:08;8.13;;;7.43;;
14092;SDS011;7123;49.468;10.992;2023-07-09T04:22:36;10.52;;;8.07;;
14092;SDS011;7123;49.468;10.992;2023-07-09T04:25:04;8.50;;;7.70;;
14092;SDS011;7123;49.468;10.992;2023-07-09T04:27:33;10.07;;;8.13;;
14092;SDS011;7123;49.468;10.992;2023-07-09T04:30:00;8.40;;;7.47;;
14092;SDS011;7123;49.468;10.992;2023-07-09T04:32:27;9.20;;;7.70;;
14092;SDS011;7123;49.468;10.992;2023-07-09T04:34:54;8.63;;;7.85;;
14092;SDS011;7123;49.468;10.992;2023-07-09T04:37:21;9.05;;;7.80;;
14092;SDS011;7123;49.468;10.992;2023-07-09T04:39:47;8.55;;;7.75;;
14092;SDS011;7123;49.468;10.992;2023-07-09T04:42:15;8.73;;;7.55;;
14092;SDS011;7123;49.468;10.992;2023-07-09T04:44:44;8.93;;;8.02;;
14092;SDS011;7123;49.468;10.992;2023-07-09T04:47:11;7.65;;;7.00;;
14092;SDS011;7123;49.468;10.992;2023-07-09T04:49:38;9.43;;;7.70;;
14092;SDS011;7123;49.468;10.992;2023-07-09T04:52:05;9.02;;;7.40;;
14092;SDS011;7123;49.468;10.992;2023-07-09T04:54:32;9.90;;;7.70;;
14092;SDS011;7123;49.468;10.992;2023-07-09T04:56:59;10.38;;;7.65;;
14092;SDS011;7123;49.468;10.992;2023-07-09T04:59:26;8.48;;;7.63;;
14092;SDS011;7123;49.468;10.992;2023-07-09T05:01:53;9.15;;;7.82;;
14092;SDS011;7123;49.468;10.992;2023-07-09T05:04:20;8.30;;;7.50;;
14092;SDS011;7123;49.468;10.992;2023-07-09T05:06:47;7.63;;;6.93;;
14092;SDS011;7123;49.468;10.992;2023-07-09T05:09:14;8.73;;;7.00;;
14092;SDS011;7123;49.468;10.992;2023-07-09T05:11:41;9.73;;;7.00;;
14092;SDS011;7123;49.468;10.992;2023-07-09T05:14:07;8.85;;;8.00;;
14092;SDS011;7123;49.468;10.992;2023-07-09T05:16:34;7.97;;;7.10;;
14092;SDS011;7123;49.468;10.992;2023-07-09T05:19:02;10.00;;;8.30;;
14092;SDS011;7123;49.468;10.992;2023-07-09T05:21:29;8.52;;;7.70;;
14092;SDS011;7123;49.468;10.992;2023-07-09T05:23:56;8.68;;;7.78;;
14092;SDS011;7123;49.468;10.992;2023-07-09T05:26:23;8.43;;;7.63;;
14092;SDS011;7123;49.468;10.992;2023-07-09T05:28:50;8.05;;;7.25;;
14092;SDS011;7123;49.468;10.992;2023-07-09T05:31:16;8.55;;;7.45;;
14092;SDS011;7123;49.468;10.992;2023-07-09T05:33:44;7.70;;;6.78;;
14092;SDS011;7123;49.468;10.992;2023-07-09T05:36:11;8.68;;;7.50;;
14092;SDS011;7123;49.468;10.992;2023-07-09T05:38:42;8.43;;;7.60;;
14092;SDS011;7123;49.468;10.992;2023-07-09T05:41:12;7.93;;;7.20;;
14092;SDS011;7123;49.468;10.992;2023-07-09T05:43:43;8.05;;;7.22;;
14092;SDS011;7123;49.468;10.992;2023-07-09T05:46:11;8.45;;;7.53;;
14092;SDS011;7123;49.468;10.992;2023-07-09T05:48:39;8.85;;;7.65;;
14092;SDS011;7123;49.468;10.992;2023-07-09T05:51:06;7.70;;;6.97;;
14092;SDS011;7123;49.468;10.992;2023-07-09T05:53:33;7.97;;;7.10;;
14092;SDS011;7123;49.468;10.992;2023-07-09T05:55:59;8.43;;;7.60;;
14092;SDS011;7123;49.468;10.992;2023-07-09T05:58:27;10.32;;;7.25;;
14092;SDS011;7123;49.468;10.992;2023-07-09T06:00:54;8.75;;;7.30;;
14092;SDS011;7123;49.468;10.992;2023-07-09T06:03:24;8.10;;;7.30;;
14092;SDS011;7123;49.468;10.992;2023-07-09T06:05:53;10.63;;;7.10;;
14092;SDS011;7123;49.468;10.992;2023-07-09T06:08:20;11.02;;;7.80;;
14092;SDS011;7123;49.468;10.992;2023-07-09T06:10:58;8.45;;;7.72;;
14092;SDS011;7123;49.468;10.992;2023-07-09T06:13:26;7.55;;;6.85;;
14092;SDS011;7123;49.468;10.992;2023-07-09T06:15:54;8.18;;;7.47;;
14092;SDS011;7123;49.468;10.992;2023-07-09T06:18:22;8.00;;;6.88;;
14092;SDS011;7123;49.468;10.992;2023-07-09T06:20:50;11.38;;;7.50;;
14092;SDS011;7123;49.468;10.992;2023-07-09T06:23:19;7.97;;;7.25;;
14092;SDS011;7123;49.468;10.992;2023-07-09T06:25:46;7.72;;;7.03;;
14092;SDS011;7123;49.468;10.992;2023-07-09T06:28:18;7.30;;;6.60;;
14092;SDS011;7123;49.468;10.992;2023-07-09T06:30:46;8.25;;;6.75;;
14092;SDS011;7123;49.468;10.992;2023-07-09T06:33:14;7.80;;;7.00;;
14092;SDS011;7123;49.468;10.992;2023-07-09T06:35:48;7.85;;;6.75;;
14092;SDS011;7123;49.468;10.992;2023-07-09T06:38:17;7.60;;;6.88;;
14092;SDS011;7123;49.468;10.992;2023-07-09T06:40:44;6.75;;;6.20;;
14092;SDS011;7123;49.468;10.992;2023-07-09T06:43:11;7.05;;;6.43;;
14092;SDS011;7123;49.468;10.992;2023-07-09T06:45:38;7.22;;;6.53;;
14092;SDS011;7123;49.468;10.992;2023-07-09T06:48:05;8.82;;;6.65;;
14092;SDS011;7123;49.468;10.992;2023-07-09T06:50:32;10.27;;;6.93;;
14092;SDS011;7123;49.468;10.992;2023-07-09T06:53:00;9.27;;;6.50;;
14092;SDS011;7123;49.468;10.992;2023-07-09T06:55:26;7.43;;;6.72;;
14092;SDS011;7123;49.468;10.992;2023-07-09T06:57:53;8.10;;;6.85;;
14092;SDS011;7123;49.468;10.992;2023-07-09T07:00:20;9.32;;;6.20;;
14092;SDS011;7123;49.468;10.992;2023-07-09T07:02:47;7.57;;;6.32;;
14092;SDS011;7123;49.468;10.992;2023-07-09T07:05:14;7.13;;;6.43;;
14092;SDS011;7123;49.468;10.992;2023-07-09T07:07:40;8.45;;;7.10;;
14092;SDS011;7123;49.468;10.992;2023-07-09T07:10:07;7.72;;;6.30;;
14092;SDS011;7123;49.468;10.992;2023-07-09T07:12:41;8.85;;;6.25;;
14092;SDS011;7123;49.468;10.992;2023-07-09T07:15:09;7.03;;;6.35;;
14092;SDS011;7123;49.468;10.992;2023-07-09T07:17:38;7.20;;;6.50;;
14092;SDS011;7123;49.468;10.992;2023-07-09T07:20:05;7.10;;;6.30;;
14092;SDS011;7123;49.468;10.992;2023-07-09T07:22:34;7.10;;;6.35;;
14092;SDS011;7123;49.468;10.992;2023-07-09T07:25:01;8.02;;;6.70;;
14092;SDS011;7123;49.468;10.992;2023-07-09T07:27:28;7.75;;;6.32;;
14092;SDS011;7123;49.468;10.992;2023-07-09T07:29:54;8.38;;;6.82;;
14092;SDS011;7123;49.468;10.992;2023-07-09T07:32:21;14.07;;;6.63;;
14092;SDS011;7123;49.468;10.992;2023-07-09T07:34:48;6.82;;;6.13;;
14092;SDS011;7123;49.468;10.992;2023-07-09T07:37:17;7.88;;;6.20;;
14092;SDS011;7123;49.468;10.992;2023-07-09T07:39:48;6.78;;;6.18;;
14092;SDS011;7123;49.468;10.992;2023-07-09T07:42:15;8.10;;;7.25;;
14092;SDS011;7123;49.468;10.992;2023-07-09T07:44:43;6.80;;;5.85;;
14092;SDS011;7123;49.468;10.992;2023-07-09T07:47:09;8.88;;;6.22;;
14092;SDS011;7123;49.468;10.992;2023-07-09T07:49:38;9.48;;;6.13;;
14092;SDS011;7123;49.468;10.992;2023-07-09T07:52:08;6.68;;;6.00;;
14092;SDS011;7123;49.468;10.992;2023-07-09T07:54:36;6.95;;;6.10;;
14092;SDS011;7123;49.468;10.992;2023-07-09T07:57:04;6.88;;;5.95;;
14092;SDS011;7123;49.468;10.992;2023-07-09T07:59:31;7.05;;;6.03;;
14092;SDS011;7123;49.468;10.992;2023-07-09T08:02:01;7.15;;;6.20;;
14092;SDS011;7123;49.468;10.992;2023-07-09T08:04:32;6.93;;;5.70;;
14092;SDS011;7123;49.468;10.992;2023-07-09T08:06:59;6.88;;;6.20;;
14092;SDS011;7123;49.468;10.992;2023-07-09T08:09:25;7.05;;;5.78;;
14092;SDS011;7123;49.468;10.992;2023-07-09T08:11:52;6.30;;;5.70;;
14092;SDS011;7123;49.468;10.992;2023-07-09T08:14:19;6.13;;;5.40;;
14092;SDS011;7123;49.468;10.992;2023-07-09T08:16:46;7.43;;;5.22;;
14092;SDS011;7123;49.468;10.992;2023-07-09T08:21:44;6.05;;;5.45;;
14092;SDS011;7123;49.468;10.992;2023-07-09T08:24:12;6.13;;;5.40;;
14092;SDS011;7123;49.468;10.992;2023-07-09T08:26:40;9.07;;;5.05;;
14092;SDS011;7123;49.468;10.992;2023-07-09T08:29:07;5.80;;;5.30;;
14092;SDS011;7123;49.468;10.992;2023-07-09T08:31:34;5.07;;;4.57;;
14092;SDS011;7123;49.468;10.992;2023-07-09T08:34:00;5.25;;;4.75;;
14092;SDS011;7123;49.468;10.992;2023-07-09T08:36:28;5.07;;;4.68;;
14092;SDS011;7123;49.468;10.992;2023-07-09T08:38:56;6.85;;;5.13;;
14092;SDS011;7123;49.468;10.992;2023-07-09T08:44:15;4.88;;;4.47;;
14092;SDS011;7123;49.468;10.992;2023-07-09T08:49:59;6.43;;;4.80;;
14092;SDS011;7123;49.468;10.992;2023-07-09T08:52:35;10.35;;;4.60;;
14092;SDS011;7123;49.468;10.992;2023-07-09T08:55:04;6.85;;;4.60;;
14092;SDS011;7123;49.468;10.992;2023-07-09T08:57:56;6.20;;;4.68;;
14092;SDS011;7123;49.468;10.992;2023-07-09T09:02:59;7.60;;;5.03;;
14092;SDS011;7123;49.468;10.992;2023-07-09T09:05:32;6.43;;;4.43;;
14092;SDS011;7123;49.468;10.992;2023-07-09T09:08:50;5.18;;;4.68;;
14092;SDS011;7123;49.468;10.992;2023-07-09T09:11:01;6.93;;;4.60;;
14092;SDS011;7123;49.468;10.992;2023-07-09T09:13:31;4.78;;;4.38;;
14092;SDS011;7123;49.468;10.992;2023-07-09T09:16:00;4.90;;;4.20;;
14092;SDS011;7123;49.468;10.992;2023-07-09T09:18:37;10.25;;;4.45;;
14092;SDS011;7123;49.468;10.992;2023-07-09T09:21:16;5.63;;;4.72;;
14092;SDS011;7123;49.468;10.992;2023-07-09T09:23:58;5.25;;;4.75;;
14092;SDS011;7123;49.468;10.992;2023-07-09T09:26:32;6.35;;;5.10;;
14092;SDS011;7123;49.468;10.992;2023-07-09T09:29:01;4.80;;;4.03;;
14092;SDS011;7123;49.468;10.992;2023-07-09T09:31:37;5.43;;;4.57;;
14092;SDS011;7123;49.468;10.992;2023-07-09T09:34:04;6.20;;;4.65;;
14092;SDS011;7123;49.468;10.992;2023-07-09T09:36:31;6.32;;;4.60;;
14092;SDS011;7123;49.468;10.992;2023-07-09T09:39:03;5.85;;;4.47;;
14092;SDS011;7123;49.468;10.992;2023-07-09T09:41:30;5.90;;;4.50;;
14092;SDS011;7123;49.468;10.992;2023-07-09T09:43:59;6.30;;;4.35;;
14092;SDS011;7123;49.468;10.992;2023-07-09T09:46:26;6.05;;;4.05;;
14092;SDS011;7123;49.468;10.992;2023-07-09T09:48:54;4.75;;;4.35;;
14092;SDS011;7123;49.468;10.992;2023-07-09T09:51:25;4.82;;;4.43;;
14092;SDS011;7123;49.468;10.992;2023-07-09T09:53:57;5.28;;;4.00;;
14092;SDS011;7123;49.468;10.992;2023-07-09T09:58:55;4.55;;;4.10;;
14092;SDS011;7123;49.468;10.992;2023-07-09T10:01:27;5.75;;;4.32;;
14092;SDS011;7123;49.468;10.992;2023-07-09T10:03:57;5.28;;;4.28;;
14092;SDS011;7123;49.468;10.992;2023-07-09T10:06:33;4.18;;;3.78;;
14092;SDS011;7123;49.468;10.992;2023-07-09T10:09:22;6.72;;;4.50;;
14092;SDS011;7123;49.468;10.992;2023-07-09T10:15:18;7.10;;;4.20;;
14092;SDS011;7123;49.468;10.992;2023-07-09T10:18:20;10.30;;;4.60;;
14092;SDS011;7123;49.468;10.992;2023-07-09T10:23:44;5.07;;;4.13;;
14092;SDS011;7123;49.468;10.992;2023-07-09T10:26:22;4.95;;;4.05;;
14092;SDS011;7123;49.468;10.992;2023-07-09T10:37:14;4.78;;;4.28;;
14092;SDS011;7123;49.468;10.992;2023-07-09T10:39:51;4.47;;;4.07;;
14092;SDS011;7123;49.468;10.992;2023-07-09T10:42:24;5.55;;;4.15;;
14092;SDS011;7123;49.468;10.992;2023-07-09T10:45:02;5.47;;;4.30;;
14092;SDS011;7123;49.468;10.992;2023-07-09T10:47:36;4.78;;;4.22;;
14092;SDS011;7123;49.468;10.992;2023-07-09T10:50:10;5.28;;;3.95;;
14092;SDS011;7123;49.468;10.992;2023-07-09T10:52:42;5.85;;;4.18;;
14092;SDS011;7123;49.468;10.992;2023-07-09T10:55:16;5.13;;;3.90;;
14092;SDS011;7123;49.468;10.992;2023-07-09T10:57:57;4.03;;;3.60;;
14092;SDS011;7123;49.468;10.992;2023-07-09T11:00:40;4.03;;;3.60;;
14092;SDS011;7123;49.468;10.992;2023-07-09T11:03:19;4.43;;;4.03;;
14092;SDS011;7123;49.468;10.992;2023-07-09T11:05:54;8.77;;;4.00;;
14092;SDS011;7123;49.468;10.992;2023-07-09T11:08:25;7.68;;;4.00;;
14092;SDS011;7123;49.468;10.992;2023-07-09T11:11:06;5.07;;;4.00;;
14092;SDS011;7123;49.468;10.992;2023-07-09T11:13:44;5.65;;;3.95;;
14092;SDS011;7123;49.468;10.992;2023-07-09T11:16:25;6.32;;;3.95;;
14092;SDS011;7123;49.468;10.992;2023-07-09T11:19:00;5.05;;;3.90;;
14092;SDS011;7123;49.468;10.992;2023-07-09T11:21:29;4.15;;;3.75;;
14092;SDS011;7123;49.468;10.992;2023-07-09T11:23:57;5.60;;;3.60;;
14092;SDS011;7123;49.468;10.992;2023-07-09T11:26:31;4.70;;;4.00;;
14092;SDS011;7123;49.468;10.992;2023-07-09T11:31:35;5.32;;;3.90;;
14092;SDS011;7123;49.468;10.992;2023-07-09T11:36:34;7.88;;;4.38;;
14092;SDS011;7123;49.468;10.992;2023-07-09T11:39:22;5.00;;;4.50;;
14092;SDS011;7123;49.468;10.992;2023-07-09T11:41:55;5.38;;;3.92;;
14092;SDS011;7123;49.468;10.992;2023-07-09T11:44:25;4.80;;;3.97;;
14092;SDS011;7123;49.468;10.992;2023-07-09T11:49:49;4.32;;;3.80;;
14092;SDS011;7123;49.468;10.992;2023-07-09T11:52:42;5.07;;;4.45;;
14092;SDS011;7123;49.468;10.992;2023-07-09T11:57:54;4.60;;;4.03;;
14092;SDS011;7123;49.468;10.992;2023-07-09T12:00:22;5.95;;;3.95;;
14092;SDS011;7123;49.468;10.992;2023-07-09T12:02:49;4.50;;;3.83;;
14092;SDS011;7123;49.468;10.992;2023-07-09T12:05:22;4.28;;;3.92;;
14092;SDS011;7123;49.468;10.992;2023-07-09T12:07:54;4.75;;;3.70;;
14092;SDS011;7123;49.468;10.992;2023-07-09T12:10:23;5.25;;;4.05;;
14092;SDS011;7123;49.468;10.992;2023-07-09T12:12:56;4.53;;;4.10;;
14092;SDS011;7123;49.468;10.992;2023-07-09T12:15:25;6.45;;;3.88;;
14092;SDS011;7123;49.468;10.992;2023-07-09T12:17:54;5.63;;;3.70;;
14092;SDS011;7123;49.468;10.992;2023-07-09T12:20:23;8.00;;;4.15;;
14092;SDS011;7123;49.468;10.992;2023-07-09T12:22:50;4.68;;;3.63;;
14092;SDS011;7123;49.468;10.992;2023-07-09T12:25:18;4.00;;;3.70;;
14092;SDS011;7123;49.468;10.992;2023-07-09T12:27:57;5.28;;;3.67;;
14092;SDS011;7123;49.468;10.992;2023-07-09T12:30:24;4.10;;;3.38;;
14092;SDS011;7123;49.468;10.992;2023-07-09T12:32:51;4.07;;;3.58;;
14092;SDS011;7123;49.468;10.992;2023-07-09T12:35:18;5.15;;;3.85;;
14092;SDS011;7123;49.468;10.992;2023-07-09T12:37:47;4.43;;;3.50;;
14092;SDS011;7123;49.468;10.992;2023-07-09T12:40:21;7.63;;;3.72;;
14092;SDS011;7123;49.468;10.992;2023-07-09T12:42:50;5.30;;;3.70;;
14092;SDS011;7123;49.468;10.992;2023-07-09T12:45:19;4.53;;;3.60;;
14092;SDS011;7123;49.468;10.992;2023-07-09T12:47:48;6.68;;;3.55;;
14092;SDS011;7123;49.468;10.992;2023-07-09T12:50:37;3.90;;;3.53;;
14092;SDS011;7123;49.468;10.992;2023-07-09T12:53:17;4.80;;;3.70;;
14092;SDS011;7123;49.468;10.992;2023-07-09T12:55:48;4.50;;;4.13;;
14092;SDS011;7123;49.468;10.992;2023-07-09T12:58:24;5.93;;;3.90;;
14092;SDS011;7123;49.468;10.992;2023-07-09T13:00:56;4.22;;;3.47;;
14092;SDS011;7123;49.468;10.992;2023-07-09T13:03:27;3.72;;;3.40;;
14092;SDS011;7123;49.468;10.992;2023-07-09T13:06:03;4.90;;;3.65;;
14092;SDS011;7123;49.468;10.992;2023-07-09T13:08:39;6.55;;;4.00;;
14092;SDS011;7123;49.468;10.992;2023-07-09T13:11:14;4.18;;;3.83;;
14092;SDS011;7123;49.468;10.992;2023-07-09T13:13:52;4.25;;;3.85;;
14092;SDS011;7123;49.468;10.992;2023-07-09T13:16:34;5.72;;;4.20;;
14092;SDS011;7123;49.468;10.992;2023-07-09T13:19:11;4.32;;;3.78;;
14092;SDS011;7123;49.468;10.992;2023-07-09T13:21:38;4.50;;;3.80;;
14092;SDS011;7123;49.468;10.992;2023-07-09T13:24:22;4.00;;;3.67;;
14092;SDS011;7123;49.468;10.992;2023-07-09T13:26:55;5.57;;;3.95;;
14092;SDS011;7123;49.468;10.992;2023-07-09T13:29:26;7.10;;;4.03;;
14092;SDS011;7123;49.468;10.992;2023-07-09T13:31:54;5.43;;;4.03;;
14092;SDS011;7123;49.468;10.992;2023-07-09T13:34:25;7.05;;;4.00;;
14092;SDS011;7123;49.468;10.992;2023-07-09T13:36:54;6.45;;;4.13;;
14092;SDS011;7123;49.468;10.992;2023-07-09T13:39:24;6.05;;;3.97;;
14092;SDS011;7123;49.468;10.992;2023-07-09T13:41:55;4.60;;;3.97;;
14092;SDS011;7123;49.468;10.992;2023-07-09T13:44:24;4.18;;;3.72;;
14092;SDS011;7123;49.468;10.992;2023-07-09T13:46:54;8.80;;;4.10;;
14092;SDS011;7123;49.468;10.992;2023-07-09T13:49:22;6.35;;;4.20;;
14092;SDS011;7123;49.468;10.992;2023-07-09T13:51:51;5.25;;;4.10;;
14092;SDS011;7123;49.468;10.992;2023-07-09T13:54:21;5.65;;;4.25;;
14092;SDS011;7123;49.468;10.992;2023-07-09T13:57:06;7.45;;;4.30;;
14092;SDS011;7123;49.468;10.992;2023-07-09T13:59:37;4.85;;;4.13;;
14092;SDS011;7123;49.468;10.992;2023-07-09T14:02:07;5.20;;;4.03;;
14092;SDS011;7123;49.468;10.992;2023-07-09T14:04:43;4.95;;;3.90;;
14092;SDS011;7123;49.468;10.992;2023-07-09T14:07:22;5.78;;;3.70;;
14092;SDS011;7123;49.468;10.992;2023-07-09T14:10:02;5.35;;;3.75;;
14092;SDS011;7123;49.468;10.992;2023-07-09T14:12:33;5.07;;;3.95;;
14092;SDS011;7123;49.468;10.992;2023-07-09T14:15:05;4.10;;;3.67;;
14092;SDS011;7123;49.468;10.992;2023-07-09T14:17:46;5.30;;;4.10;;
14092;SDS011;7123;49.468;10.992;2023-07-09T14:20:17;4.55;;;4.15;;
14092;SDS011;7123;49.468;10.992;2023-07-09T14:22:47;5.88;;;4.30;;
14092;SDS011;7123;49.468;10.992;2023-07-09T14:25:18;4.78;;;4.07;;
14092;SDS011;7123;49.468;10.992;2023-07-09T14:27:48;7.32;;;4.32;;
14092;SDS011;7123;49.468;10.992;2023-07-09T14:30:25;4.75;;;4.30;;
14092;SDS011;7123;49.468;10.992;2023-07-09T14:32:55;5.15;;;4.22;;
14092;SDS011;7123;49.468;10.992;2023-07-09T14:35:26;4.53;;;4.10;;
14092;SDS011;7123;49.468;10.992;2023-07-09T14:37:59;5.32;;;4.10;;
14092;SDS011;7123;49.468;10.992;2023-07-09T14:40:29;4.15;;;3.75;;
14092;SDS011;7123;49.468;10.992;2023-07-09T14:42:56;8.02;;;3.80;;
14092;SDS011;7123;49.468;10.992;2023-07-09T14:45:28;4.95;;;4.10;;
14092;SDS011;7123;49.468;10.992;2023-07-09T14:47:59;5.60;;;4.30;;
14092;SDS011;7123;49.468;10.992;2023-07-09T14:50:26;5.03;;;4.22;;
14092;SDS011;7123;49.468;10.992;2023-07-09T14:52:53;4.53;;;4.10;;
14092;SDS011;7123;49.468;10.992;2023-07-09T14:55:21;4.60;;;4.10;;
14092;SDS011;7123;49.468;10.992;2023-07-09T14:57:51;8.02;;;4.55;;
14092;SDS011;7123;49.468;10.992;2023-07-09T15:00:19;5.38;;;3.97;;
14092;SDS011;7123;49.468;10.992;2023-07-09T15:02:49;6.65;;;4.13;;
14092;SDS011;7123;49.468;10.992;2023-07-09T15:05:19;4.40;;;4.00;;
14092;SDS011;7123;49.468;10.992;2023-07-09T15:07:47;5.05;;;4.13;;
14092;SDS011;7123;49.468;10.992;2023-07-09T15:10:15;4.60;;;4.20;;
14092;SDS011;7123;49.468;10.992;2023-07-09T15:12:45;4.53;;;4.13;;
14092;SDS011;7123;49.468;10.992;2023-07-09T15:15:14;4.65;;;3.97;;
14092;SDS011;7123;49.468;10.992;2023-07-09T15:17:46;6.03;;;4.28;;
14092;SDS011;7123;49.468;10.992;2023-07-09T15:20:17;4.68;;;3.90;;
14092;SDS011;7123;49.468;10.992;2023-07-09T15:22:49;7.68;;;4.45;;
14092;SDS011;7123;49.468;10.992;2023-07-09T15:25:21;7.00;;;4.07;;
14092;SDS011;7123;49.468;10.992;2023-07-09T15:27:49;7.20;;;4.00;;
14092;SDS011;7123;49.468;10.992;2023-07-09T15:30:18;4.40;;;4.00;;
14092;SDS011;7123;49.468;10.992;2023-07-09T15:32:47;5.93;;;4.38;;
14092;SDS011;7123;49.468;10.992;2023-07-09T15:35:16;4.88;;;4.10;;
14092;SDS011;7123;49.468;10.992;2023-07-09T15:37:45;5.30;;;4.28;;
14092;SDS011;7123;49.468;10.992;2023-07-09T15:42:47;6.35;;;4.05;;
14092;SDS011;7123;49.468;10.992;2023-07-09T15:45:16;5.95;;;3.97;;
14092;SDS011;7123;49.468;10.992;2023-07-09T15:47:44;4.43;;;3.83;;
14092;SDS011;7123;49.468;10.992;2023-07-09T15:50:22;5.22;;;3.88;;